Airfield :
LOGIN :

Register | Disclaimer

   EN    FR    IT 

 










Legend :    VFR   Marginal VFR   IFR   Intensive IFR   Very Intensive IFR
Visi :
Ceiling :
>= 8 km
>= 3000ft
5 to 8 km
1000 to 3000 ft
1500m to 5 km
500 to 1000 ft
800 to 1500m
200 to 500 ft
< 800m
< 200 ft
Symbols :   Thunderstorms  Fog  Heavy snow  Heavy precipitations  Wind > 20 kt
SIGMETs :     Misc.  Thunderstorms  Icing  Turbulence  Mountain Waves  Volcanic Ashes







- Airport Elevation : 117 ft
- IATA code : NWI
- Download approach charts


EGSH - Norwich

CURRENT METAR :
  • 250720Z 31011KT 280V360 9999 SCT028 06/01 Q1027 NOSIG

EXPIRED METARs :
  • 250650Z 31008KT 280V360 9999 FEW033 05/01 Q1027 NOSIG
  • 250620Z 30008KT 270V330 9999 SCT034 04/01 Q1027 NOSIG
  • 250550Z 29009KT 9999 FEW030 05/01 Q1026
  • 250520Z AUTO 30009KT 250V330 9999 NCD 05/01 Q1026
  • 250450Z AUTO 30009KT 260V330 9999 NCD 05/01 Q1026
  • 250420Z AUTO 30009KT 270V330 9999 NCD 05/01 Q1025

TAF TAF EGSH
Valid from the 25 at 06:00 until the 25 at 15:00 UTC


250456Z 2506/2515 32012KT 9999 FEW040
TEMPO 2509/2515 33016G26KT
ATIS : +44 1603 420 640
No reported NOTAMs for that airfield.
1 SIGMET reported for the London FIR (EGTT) :
 
Severe turbulence
EGTT SIGMET 02 VALID 250600/251000 EGRR
EGTT LONDON FIR SEV TURB FCST NE OF LINE N5500 E00153 - N5309 E00324 SFC/FL060 STNR WKN=



MET'MAP, your aeronautical weather chart ! - Copyright ORBIFLY December 2007 - Disclaimer

ORBIFLY MET'MAP TEAM :

Programming & Development : Alexandra Zaïnal
Concept & Development : Baudouin d'Aumeries
Co-Development & Prog : Marc-Olivier Méhu
Technical & hardware support : Manuel Goepfert

Contact : metmap@orbifly.com




SOURCES & CREDITS :

   NOAA